Terminal Aerodrome Forecast
Issued by NWS Sterling, VA

Home | Current Version | Previous Version | Text Only | Print | Product List | Glossary On
Versions: 1 2 3 4 5 6 7 8 9 10 11 12 13 14 15 16 17 18 19 20 21 22 23 24
000
FTUS41 KLWX 271922 AAB
TAFBWI
TAF AMD
KBWI 271922Z 2719/2824 32012G20KT P6SM -SHRA VCTS BKN050CB BKN130
      TEMPO 2720/2721 VRB25KT TSRA
     FM272100 20008KT 6SM -TSRA BKN050CB BKN130
     FM280100 16006KT P6SM VCTS SCT050CB BKN200
     FM280400 17005KT P6SM SCT050 BKN200
     FM280700 18004KT 5SM BR SCT050 BKN200
     FM281200 23005KT P6SM SCT050 BKN200
     FM281700 00000KT P6SM BKN050=

USA.gov is the U.S. government's official web portal to all federal, state and local government web resources and services.